sensor_id;sensor_type;location;lat;lon;timestamp;pressure;altitude;pressure_sealevel;temperature;humidity
4326;BME280;58429;49.826;10.880;2023-04-16T00:00:58;98417;;;7.85;89.27
4326;BME280;58429;49.826;10.880;2023-04-16T00:01:58;98416;;;7.84;89.27
4326;BME280;58429;49.826;10.880;2023-04-16T00:02:58;98419;;;7.86;89.26
4326;BME280;58429;49.826;10.880;2023-04-16T00:03:58;98417;;;7.87;89.25
4326;BME280;58429;49.826;10.880;2023-04-16T00:04:58;98413;;;7.87;89.26
4326;BME280;58429;49.826;10.880;2023-04-16T00:05:58;98415;;;7.89;89.21
4326;BME280;58429;49.826;10.880;2023-04-16T00:06:58;98417;;;7.89;89.25
4326;BME280;58429;49.826;10.880;2023-04-16T00:07:58;98417;;;7.89;89.22
4326;BME280;58429;49.826;10.880;2023-04-16T00:08:58;98415;;;7.86;89.22
4326;BME280;58429;49.826;10.880;2023-04-16T00:09:58;98415;;;7.87;89.22
4326;BME280;58429;49.826;10.880;2023-04-16T00:10:58;98414;;;7.9;89.25
4326;BME280;58429;49.826;10.880;2023-04-16T00:11:58;98410;;;7.85;89.26
4326;BME280;58429;49.826;10.880;2023-04-16T00:12:58;98412;;;7.87;89.23
4326;BME280;58429;49.826;10.880;2023-04-16T00:13:58;98404;;;7.86;89.23
4326;BME280;58429;49.826;10.880;2023-04-16T00:14:58;98414;;;7.87;89.25
4326;BME280;58429;49.826;10.880;2023-04-16T00:15:58;98415;;;7.87;89.21
4326;BME280;58429;49.826;10.880;2023-04-16T00:16:58;98413;;;7.89;89.26
4326;BME280;58429;49.826;10.880;2023-04-16T00:17:58;98412;;;7.87;89.23
4326;BME280;58429;49.826;10.880;2023-04-16T00:18:58;98416;;;7.87;89.25
4326;BME280;58429;49.826;10.880;2023-04-16T00:19:58;98412;;;7.86;89.25
4326;BME280;58429;49.826;10.880;2023-04-16T00:20:58;98413;;;7.88;89.26
4326;BME280;58429;49.826;10.880;2023-04-16T00:21:58;98416;;;7.86;89.22
4326;BME280;58429;49.826;10.880;2023-04-16T00:22:58;98412;;;7.9;89.26
4326;BME280;58429;49.826;10.880;2023-04-16T00:23:58;98412;;;7.87;89.3
4326;BME280;58429;49.826;10.880;2023-04-16T00:24:58;98416;;;7.87;89.32
4326;BME280;58429;49.826;10.880;2023-04-16T00:25:58;98420;;;7.85;89.39
4326;BME280;58429;49.826;10.880;2023-04-16T00:26:58;98420;;;7.84;89.39
4326;BME280;58429;49.826;10.880;2023-04-16T00:27:58;98421;;;7.83;89.39
4326;BME280;58429;49.826;10.880;2023-04-16T00:28:58;98417;;;7.85;89.42
4326;BME280;58429;49.826;10.880;2023-04-16T00:29:58;98419;;;7.84;89.44
4326;BME280;58429;49.826;10.880;2023-04-16T00:30:59;98420;;;7.81;89.43
4326;BME280;58429;49.826;10.880;2023-04-16T00:31:59;98416;;;7.84;89.39
4326;BME280;58429;49.826;10.880;2023-04-16T00:32:58;98416;;;7.86;89.39
4326;BME280;58429;49.826;10.880;2023-04-16T00:33:58;98418;;;7.85;89.43
4326;BME280;58429;49.826;10.880;2023-04-16T00:34:58;98412;;;7.83;89.43
4326;BME280;58429;49.826;10.880;2023-04-16T00:35:58;98414;;;7.84;89.44
4326;BME280;58429;49.826;10.880;2023-04-16T00:36:58;98423;;;7.86;89.42
4326;BME280;58429;49.826;10.880;2023-04-16T00:37:58;98413;;;7.84;89.43
4326;BME280;58429;49.826;10.880;2023-04-16T00:38:58;98413;;;7.83;89.41
4326;BME280;58429;49.826;10.880;2023-04-16T00:39:59;98419;;;7.85;89.41
4326;BME280;58429;49.826;10.880;2023-04-16T00:40:58;98418;;;7.86;89.4
4326;BME280;58429;49.826;10.880;2023-04-16T00:41:58;98415;;;7.85;89.39
4326;BME280;58429;49.826;10.880;2023-04-16T00:42:58;98418;;;7.86;89.36
4326;BME280;58429;49.826;10.880;2023-04-16T00:43:58;98414;;;7.85;89.39
4326;BME280;58429;49.826;10.880;2023-04-16T00:44:58;98412;;;7.87;89.39
4326;BME280;58429;49.826;10.880;2023-04-16T00:45:58;98415;;;7.86;89.37
4326;BME280;58429;49.826;10.880;2023-04-16T00:46:58;98414;;;7.85;89.39
4326;BME280;58429;49.826;10.880;2023-04-16T00:47:58;98418;;;7.86;89.4
4326;BME280;58429;49.826;10.880;2023-04-16T00:48:58;98423;;;7.85;89.39
4326;BME280;58429;49.826;10.880;2023-04-16T00:49:58;98418;;;7.85;89.39
4326;BME280;58429;49.826;10.880;2023-04-16T00:50:58;98418;;;7.85;89.39
4326;BME280;58429;49.826;10.880;2023-04-16T00:51:58;98417;;;7.84;89.37
4326;BME280;58429;49.826;10.880;2023-04-16T00:52:59;98413;;;7.85;89.35
4326;BME280;58429;49.826;10.880;2023-04-16T00:53:58;98412;;;7.86;89.37
4326;BME280;58429;49.826;10.880;2023-04-16T00:54:58;98415;;;7.9;89.37
4326;BME280;58429;49.826;10.880;2023-04-16T00:55:58;98414;;;7.87;89.34
4326;BME280;58429;49.826;10.880;2023-04-16T00:56:58;98417;;;7.84;89.33
4326;BME280;58429;49.826;10.880;2023-04-16T00:57:58;98410;;;7.86;89.33
4326;BME280;58429;49.826;10.880;2023-04-16T00:58:58;98416;;;7.86;89.36
4326;BME280;58429;49.826;10.880;2023-04-16T00:59:59;98419;;;7.86;89.38
4326;BME280;58429;49.826;10.880;2023-04-16T01:00:59;98420;;;7.86;89.36
4326;BME280;58429;49.826;10.880;2023-04-16T01:01:58;98413;;;7.88;89.37
4326;BME280;58429;49.826;10.880;2023-04-16T01:02:58;98420;;;7.87;89.36
4326;BME280;58429;49.826;10.880;2023-04-16T01:03:58;98416;;;7.85;89.33
4326;BME280;58429;49.826;10.880;2023-04-16T01:04:58;98411;;;7.87;89.34
4326;BME280;58429;49.826;10.880;2023-04-16T01:05:58;98415;;;7.89;89.3
4326;BME280;58429;49.826;10.880;2023-04-16T01:06:58;98407;;;7.9;89.32
4326;BME280;58429;49.826;10.880;2023-04-16T01:07:58;98415;;;7.91;89.3
4326;BME280;58429;49.826;10.880;2023-04-16T01:08:59;98411;;;7.86;89.29
4326;BME280;58429;49.826;10.880;2023-04-16T01:09:58;98410;;;7.9;89.28
4326;BME280;58429;49.826;10.880;2023-04-16T01:10:58;98416;;;7.92;89.3
4326;BME280;58429;49.826;10.880;2023-04-16T01:11:58;98402;;;7.88;89.3
4326;BME280;58429;49.826;10.880;2023-04-16T01:12:58;98407;;;7.87;89.31
4326;BME280;58429;49.826;10.880;2023-04-16T01:13:58;98413;;;7.86;89.31
4326;BME280;58429;49.826;10.880;2023-04-16T01:14:58;98406;;;7.86;89.33
4326;BME280;58429;49.826;10.880;2023-04-16T01:15:59;98409;;;7.86;89.34
4326;BME280;58429;49.826;10.880;2023-04-16T01:16:58;98417;;;7.87;89.32
4326;BME280;58429;49.826;10.880;2023-04-16T01:17:59;98416;;;7.87;89.3
4326;BME280;58429;49.826;10.880;2023-04-16T01:18:58;98420;;;7.89;89.28
4326;BME280;58429;49.826;10.880;2023-04-16T01:19:58;98417;;;7.89;89.27
4326;BME280;58429;49.826;10.880;2023-04-16T01:20:59;98419;;;7.9;89.27
4326;BME280;58429;49.826;10.880;2023-04-16T01:21:59;98418;;;7.88;89.24
4326;BME280;58429;49.826;10.880;2023-04-16T01:22:58;98417;;;7.91;89.24
4326;BME280;58429;49.826;10.880;2023-04-16T01:24:01;98421;;;7.89;89.23
4326;BME280;58429;49.826;10.880;2023-04-16T01:24:59;98419;;;7.93;89.23
4326;BME280;58429;49.826;10.880;2023-04-16T01:25:58;98418;;;7.93;89.21
4326;BME280;58429;49.826;10.880;2023-04-16T01:26:59;98422;;;7.94;89.23
4326;BME280;58429;49.826;10.880;2023-04-16T01:27:58;98419;;;7.94;89.21
4326;BME280;58429;49.826;10.880;2023-04-16T01:28:58;98420;;;7.93;89.19
4326;BME280;58429;49.826;10.880;2023-04-16T01:29:59;98423;;;7.92;89.14
4326;BME280;58429;49.826;10.880;2023-04-16T01:30:58;98422;;;7.93;89.16
4326;BME280;58429;49.826;10.880;2023-04-16T01:31:58;98421;;;7.91;89.16
4326;BME280;58429;49.826;10.880;2023-04-16T01:32:58;98422;;;7.96;89.16
4326;BME280;58429;49.826;10.880;2023-04-16T01:33:58;98421;;;7.93;89.17
4326;BME280;58429;49.826;10.880;2023-04-16T01:34:58;98425;;;7.95;89.15
4326;BME280;58429;49.826;10.880;2023-04-16T01:35:59;98423;;;7.94;89.13
4326;BME280;58429;49.826;10.880;2023-04-16T01:36:59;98425;;;7.92;89.11
4326;BME280;58429;49.826;10.880;2023-04-16T01:37:58;98422;;;7.94;89.13
4326;BME280;58429;49.826;10.880;2023-04-16T01:38:58;98426;;;7.92;89.12
4326;BME280;58429;49.826;10.880;2023-04-16T01:39:58;98423;;;7.93;89.11
4326;BME280;58429;49.826;10.880;2023-04-16T01:40:58;98417;;;7.94;89.12
4326;BME280;58429;49.826;10.880;2023-04-16T01:41:58;98424;;;7.96;89.12
4326;BME280;58429;49.826;10.880;2023-04-16T01:42:59;98421;;;7.96;89.11
4326;BME280;58429;49.826;10.880;2023-04-16T01:43:58;98425;;;7.93;89.11
4326;BME280;58429;49.826;10.880;2023-04-16T01:44:58;98421;;;7.96;89.1
4326;BME280;58429;49.826;10.880;2023-04-16T01:46:07;98426;;;7.94;89.08
4326;BME280;58429;49.826;10.880;2023-04-16T01:46:59;98429;;;7.91;89.05
4326;BME280;58429;49.826;10.880;2023-04-16T01:47:59;98427;;;7.91;89.08
4326;BME280;58429;49.826;10.880;2023-04-16T01:48:59;98427;;;7.92;89.07
4326;BME280;58429;49.826;10.880;2023-04-16T01:49:58;98426;;;7.94;89.09
4326;BME280;58429;49.826;10.880;2023-04-16T01:50:59;98425;;;7.95;89.1
4326;BME280;58429;49.826;10.880;2023-04-16T01:51:58;98424;;;7.93;89.08
4326;BME280;58429;49.826;10.880;2023-04-16T01:52:59;98426;;;7.9;89.07
4326;BME280;58429;49.826;10.880;2023-04-16T01:53:58;98427;;;7.93;89.05
4326;BME280;58429;49.826;10.880;2023-04-16T01:54:58;98427;;;7.91;89.06
4326;BME280;58429;49.826;10.880;2023-04-16T01:55:58;98424;;;7.94;89.07
4326;BME280;58429;49.826;10.880;2023-04-16T01:56:58;98422;;;7.95;89.06
4326;BME280;58429;49.826;10.880;2023-04-16T01:57:59;98431;;;7.93;89.06
4326;BME280;58429;49.826;10.880;2023-04-16T01:58:59;98423;;;7.93;89.08
4326;BME280;58429;49.826;10.880;2023-04-16T01:59:59;98425;;;7.94;89.06
4326;BME280;58429;49.826;10.880;2023-04-16T02:00:58;98423;;;7.93;89.13
4326;BME280;58429;49.826;10.880;2023-04-16T02:01:59;98421;;;7.92;89.13
4326;BME280;58429;49.826;10.880;2023-04-16T02:02:58;98423;;;7.93;89.13
4326;BME280;58429;49.826;10.880;2023-04-16T02:03:59;98423;;;7.92;89.12
4326;BME280;58429;49.826;10.880;2023-04-16T02:04:59;98418;;;7.91;89.12
4326;BME280;58429;49.826;10.880;2023-04-16T02:05:58;98419;;;7.9;89.14
4326;BME280;58429;49.826;10.880;2023-04-16T02:06:59;98423;;;7.9;89.16
4326;BME280;58429;49.826;10.880;2023-04-16T02:07:58;98429;;;7.93;89.17
4326;BME280;58429;49.826;10.880;2023-04-16T02:08:59;98426;;;7.91;89.17
4326;BME280;58429;49.826;10.880;2023-04-16T02:09:59;98423;;;7.94;89.17
4326;BME280;58429;49.826;10.880;2023-04-16T02:10:59;98427;;;7.89;89.16
4326;BME280;58429;49.826;10.880;2023-04-16T02:11:59;98430;;;7.95;89.16
4326;BME280;58429;49.826;10.880;2023-04-16T02:12:58;98426;;;7.95;89.16
4326;BME280;58429;49.826;10.880;2023-04-16T02:13:58;98422;;;7.95;89.16
4326;BME280;58429;49.826;10.880;2023-04-16T02:14:59;98424;;;7.94;89.16
4326;BME280;58429;49.826;10.880;2023-04-16T02:15:59;98423;;;7.97;89.13
4326;BME280;58429;49.826;10.880;2023-04-16T02:16:59;98423;;;7.93;89.13
4326;BME280;58429;49.826;10.880;2023-04-16T02:17:59;98428;;;7.92;89.12
4326;BME280;58429;49.826;10.880;2023-04-16T02:18:59;98427;;;7.93;89.13
4326;BME280;58429;49.826;10.880;2023-04-16T02:19:59;98425;;;7.91;89.15
4326;BME280;58429;49.826;10.880;2023-04-16T02:20:59;98423;;;7.93;89.14
4326;BME280;58429;49.826;10.880;2023-04-16T02:21:59;98430;;;7.9;89.15
4326;BME280;58429;49.826;10.880;2023-04-16T02:22:59;98429;;;7.92;89.14
4326;BME280;58429;49.826;10.880;2023-04-16T02:23:59;98424;;;7.97;89.17
4326;BME280;58429;49.826;10.880;2023-04-16T02:24:59;98425;;;7.94;89.15
4326;BME280;58429;49.826;10.880;2023-04-16T02:25:59;98432;;;7.95;89.14
4326;BME280;58429;49.826;10.880;2023-04-16T02:26:59;98430;;;7.97;89.16
4326;BME280;58429;49.826;10.880;2023-04-16T02:27:59;98426;;;7.98;89.15
4326;BME280;58429;49.826;10.880;2023-04-16T02:28:59;98433;;;7.94;89.13
4326;BME280;58429;49.826;10.880;2023-04-16T02:29:59;98429;;;7.97;89.13
4326;BME280;58429;49.826;10.880;2023-04-16T02:30:59;98428;;;7.96;89.12
4326;BME280;58429;49.826;10.880;2023-04-16T02:31:59;98431;;;7.98;89.13
4326;BME280;58429;49.826;10.880;2023-04-16T02:32:59;98433;;;7.97;89.12
4326;BME280;58429;49.826;10.880;2023-04-16T02:33:59;98427;;;7.95;89.11
4326;BME280;58429;49.826;10.880;2023-04-16T02:34:59;98433;;;7.96;89.11
4326;BME280;58429;49.826;10.880;2023-04-16T02:35:59;98432;;;7.99;89.12
4326;BME280;58429;49.826;10.880;2023-04-16T02:36:59;98438;;;7.97;89.12
4326;BME280;58429;49.826;10.880;2023-04-16T02:37:59;98443;;;7.96;89.08
4326;BME280;58429;49.826;10.880;2023-04-16T02:38:59;98434;;;7.97;89.1
4326;BME280;58429;49.826;10.880;2023-04-16T02:39:59;98439;;;7.93;89.09
4326;BME280;58429;49.826;10.880;2023-04-16T02:40:59;98436;;;7.98;89.08
4326;BME280;58429;49.826;10.880;2023-04-16T02:41:59;98437;;;7.98;89.08
4326;BME280;58429;49.826;10.880;2023-04-16T02:42:59;98432;;;7.98;89.06
4326;BME280;58429;49.826;10.880;2023-04-16T02:43:59;98438;;;7.99;89.04
4326;BME280;58429;49.826;10.880;2023-04-16T02:44:59;98441;;;8.02;89.05
4326;BME280;58429;49.826;10.880;2023-04-16T02:45:59;98442;;;8.04;89.06
4326;BME280;58429;49.826;10.880;2023-04-16T02:46:59;98437;;;8.02;89.03
4326;BME280;58429;49.826;10.880;2023-04-16T02:47:59;98441;;;8.06;89.02
4326;BME280;58429;49.826;10.880;2023-04-16T02:48:59;98434;;;8.04;89
4326;BME280;58429;49.826;10.880;2023-04-16T02:49:59;98435;;;8.05;89
4326;BME280;58429;49.826;10.880;2023-04-16T02:50:59;98434;;;8.05;88.98
4326;BME280;58429;49.826;10.880;2023-04-16T02:51:59;98435;;;8.05;88.97
4326;BME280;58429;49.826;10.880;2023-04-16T02:52:59;98436;;;8.03;88.95
4326;BME280;58429;49.826;10.880;2023-04-16T02:53:59;98430;;;8.08;88.96
4326;BME280;58429;49.826;10.880;2023-04-16T02:54:59;98431;;;8.04;88.92
4326;BME280;58429;49.826;10.880;2023-04-16T02:55:59;98438;;;8.07;88.94
4326;BME280;58429;49.826;10.880;2023-04-16T02:56:59;98432;;;8.07;88.95
4326;BME280;58429;49.826;10.880;2023-04-16T02:57:59;98437;;;8.06;88.92
4326;BME280;58429;49.826;10.880;2023-04-16T02:58:59;98431;;;8.08;88.92
4326;BME280;58429;49.826;10.880;2023-04-16T02:59:59;98426;;;8.05;88.92
4326;BME280;58429;49.826;10.880;2023-04-16T03:00:59;98428;;;8.07;88.92
4326;BME280;58429;49.826;10.880;2023-04-16T03:01:59;98427;;;8.08;88.92
4326;BME280;58429;49.826;10.880;2023-04-16T03:02:59;98433;;;8.08;88.9
4326;BME280;58429;49.826;10.880;2023-04-16T03:03:59;98433;;;8.07;88.9
4326;BME280;58429;49.826;10.880;2023-04-16T03:04:59;98424;;;8.05;88.91
4326;BME280;58429;49.826;10.880;2023-04-16T03:05:59;98429;;;8.05;88.9
4326;BME280;58429;49.826;10.880;2023-04-16T03:06:59;98430;;;8.06;88.91
4326;BME280;58429;49.826;10.880;2023-04-16T03:07:59;98439;;;8.04;88.89
4326;BME280;58429;49.826;10.880;2023-04-16T03:08:59;98435;;;8.04;88.92
4326;BME280;58429;49.826;10.880;2023-04-16T03:09:59;98429;;;8.03;88.94
4326;BME280;58429;49.826;10.880;2023-04-16T03:10:59;98438;;;8.03;88.96
4326;BME280;58429;49.826;10.880;2023-04-16T03:11:59;98439;;;8.02;88.95
4326;BME280;58429;49.826;10.880;2023-04-16T03:12:59;98436;;;8.05;88.94
4326;BME280;58429;49.826;10.880;2023-04-16T03:13:59;98439;;;8.05;88.95
4326;BME280;58429;49.826;10.880;2023-04-16T03:14:59;98437;;;8.05;88.97
4326;BME280;58429;49.826;10.880;2023-04-16T03:15:59;98434;;;8.07;88.96
4326;BME280;58429;49.826;10.880;2023-04-16T03:16:59;98436;;;8.03;88.93
4326;BME280;58429;49.826;10.880;2023-04-16T03:17:59;98438;;;8.07;88.94
4326;BME280;58429;49.826;10.880;2023-04-16T03:18:59;98441;;;8.06;88.93
4326;BME280;58429;49.826;10.880;2023-04-16T03:19:59;98443;;;8.07;88.91
4326;BME280;58429;49.826;10.880;2023-04-16T03:20:59;98440;;;8.07;88.91
4326;BME280;58429;49.826;10.880;2023-04-16T03:21:59;98441;;;8.09;88.9
4326;BME280;58429;49.826;10.880;2023-04-16T03:22:59;98439;;;8.05;88.91
4326;BME280;58429;49.826;10.880;2023-04-16T03:23:59;98447;;;8.09;88.88
4326;BME280;58429;49.826;10.880;2023-04-16T03:24:59;98444;;;8.05;88.85
4326;BME280;58429;49.826;10.880;2023-04-16T03:25:59;98448;;;8.05;88.87
4326;BME280;58429;49.826;10.880;2023-04-16T03:26:59;98447;;;8.04;88.85
4326;BME280;58429;49.826;10.880;2023-04-16T03:27:59;98448;;;8.05;88.87
4326;BME280;58429;49.826;10.880;2023-04-16T03:28:59;98451;;;8.07;88.87
4326;BME280;58429;49.826;10.880;2023-04-16T03:29:59;98452;;;8.05;88.82
4326;BME280;58429;49.826;10.880;2023-04-16T03:30:59;98453;;;8.06;88.82
4326;BME280;58429;49.826;10.880;2023-04-16T03:31:59;98449;;;8.07;88.82
4326;BME280;58429;49.826;10.880;2023-04-16T03:32:59;98451;;;8.1;88.83
4326;BME280;58429;49.826;10.880;2023-04-16T03:33:59;98455;;;8.1;88.83
4326;BME280;58429;49.826;10.880;2023-04-16T03:34:59;98452;;;8.09;88.83
4326;BME280;58429;49.826;10.880;2023-04-16T03:35:59;98461;;;8.09;88.82
4326;BME280;58429;49.826;10.880;2023-04-16T03:36:59;98458;;;8.1;88.81
4326;BME280;58429;49.826;10.880;2023-04-16T03:37:59;98460;;;8.12;88.82
4326;BME280;58429;49.826;10.880;2023-04-16T03:38:59;98460;;;8.1;88.83
4326;BME280;58429;49.826;10.880;2023-04-16T03:39:59;98463;;;8.12;88.83
4326;BME280;58429;49.826;10.880;2023-04-16T03:40:59;98459;;;8.12;88.85
4326;BME280;58429;49.826;10.880;2023-04-16T03:41:59;98466;;;8.11;88.84
4326;BME280;58429;49.826;10.880;2023-04-16T03:42:59;98463;;;8.12;88.83
4326;BME280;58429;49.826;10.880;2023-04-16T03:43:59;98457;;;8.1;88.83
4326;BME280;58429;49.826;10.880;2023-04-16T03:44:59;98463;;;8.13;88.86
4326;BME280;58429;49.826;10.880;2023-04-16T03:45:59;98462;;;8.14;88.85
4326;BME280;58429;49.826;10.880;2023-04-16T03:46:59;98461;;;8.13;88.86
4326;BME280;58429;49.826;10.880;2023-04-16T03:47:59;98463;;;8.11;88.82
4326;BME280;58429;49.826;10.880;2023-04-16T03:48:59;98458;;;8.13;88.85
4326;BME280;58429;49.826;10.880;2023-04-16T03:49:59;98459;;;8.13;88.85
4326;BME280;58429;49.826;10.880;2023-04-16T03:50:59;98455;;;8.14;88.83
4326;BME280;58429;49.826;10.880;2023-04-16T03:51:59;98459;;;8.12;88.82
4326;BME280;58429;49.826;10.880;2023-04-16T03:52:59;98452;;;8.12;88.81
4326;BME280;58429;49.826;10.880;2023-04-16T03:53:59;98460;;;8.14;88.81
4326;BME280;58429;49.826;10.880;2023-04-16T03:54:59;98461;;;8.1;88.8
4326;BME280;58429;49.826;10.880;2023-04-16T03:55:59;98462;;;8.09;88.79
4326;BME280;58429;49.826;10.880;2023-04-16T03:56:59;98471;;;8.1;88.79
4326;BME280;58429;49.826;10.880;2023-04-16T03:57:59;98466;;;8.11;88.79
4326;BME280;58429;49.826;10.880;2023-04-16T03:58:59;98467;;;8.14;88.8
4326;BME280;58429;49.826;10.880;2023-04-16T03:59:59;98461;;;8.16;88.81
4326;BME280;58429;49.826;10.880;2023-04-16T04:00:59;98465;;;8.13;88.8
4326;BME280;58429;49.826;10.880;2023-04-16T04:01:59;98461;;;8.14;88.81
4326;BME280;58429;49.826;10.880;2023-04-16T04:02:59;98461;;;8.12;88.77
4326;BME280;58429;49.826;10.880;2023-04-16T04:03:59;98466;;;8.15;88.79
4326;BME280;58429;49.826;10.880;2023-04-16T04:04:59;98464;;;8.16;88.76
4326;BME280;58429;49.826;10.880;2023-04-16T04:05:59;98468;;;8.15;88.79
4326;BME280;58429;49.826;10.880;2023-04-16T04:06:59;98472;;;8.15;88.77
4326;BME280;58429;49.826;10.880;2023-04-16T04:07:59;98465;;;8.11;88.74
4326;BME280;58429;49.826;10.880;2023-04-16T04:08:59;98470;;;8.13;88.77
4326;BME280;58429;49.826;10.880;2023-04-16T04:09:59;98466;;;8.18;88.78
4326;BME280;58429;49.826;10.880;2023-04-16T04:10:59;98470;;;8.15;88.77
4326;BME280;58429;49.826;10.880;2023-04-16T04:11:59;98474;;;8.16;88.79
4326;BME280;58429;49.826;10.880;2023-04-16T04:12:59;98469;;;8.16;88.78
4326;BME280;58429;49.826;10.880;2023-04-16T04:13:59;98476;;;8.17;88.78
4326;BME280;58429;49.826;10.880;2023-04-16T04:14:59;98470;;;8.17;88.79
4326;BME280;58429;49.826;10.880;2023-04-16T04:15:59;98476;;;8.15;88.79
4326;BME280;58429;49.826;10.880;2023-04-16T04:16:59;98475;;;8.17;88.8
4326;BME280;58429;49.826;10.880;2023-04-16T04:17:59;98472;;;8.15;88.8
4326;BME280;58429;49.826;10.880;2023-04-16T04:18:59;98473;;;8.13;88.8
4326;BME280;58429;49.826;10.880;2023-04-16T04:19:59;98473;;;8.14;88.81
4326;BME280;58429;49.826;10.880;2023-04-16T04:20:59;98475;;;8.16;88.82
4326;BME280;58429;49.826;10.880;2023-04-16T04:21:59;98479;;;8.16;88.81
4326;BME280;58429;49.826;10.880;2023-04-16T04:22:59;98477;;;8.18;88.82
4326;BME280;58429;49.826;10.880;2023-04-16T04:23:59;98479;;;8.17;88.82
4326;BME280;58429;49.826;10.880;2023-04-16T04:24:59;98478;;;8.14;88.78
4326;BME280;58429;49.826;10.880;2023-04-16T04:25:59;98483;;;8.18;88.83
4326;BME280;58429;49.826;10.880;2023-04-16T04:26:59;98484;;;8.17;88.83
4326;BME280;58429;49.826;10.880;2023-04-16T04:27:59;98483;;;8.17;88.83
4326;BME280;58429;49.826;10.880;2023-04-16T04:28:59;98480;;;8.17;88.83
4326;BME280;58429;49.826;10.880;2023-04-16T04:29:59;98484;;;8.18;88.83
4326;BME280;58429;49.826;10.880;2023-04-16T04:30:59;98481;;;8.17;88.83
4326;BME280;58429;49.826;10.880;2023-04-16T04:31:59;98479;;;8.16;88.83
4326;BME280;58429;49.826;10.880;2023-04-16T04:32:59;98485;;;8.19;88.84
4326;BME280;58429;49.826;10.880;2023-04-16T04:33:59;98481;;;8.16;88.84
4326;BME280;58429;49.826;10.880;2023-04-16T04:34:59;98479;;;8.16;88.84
4326;BME280;58429;49.826;10.880;2023-04-16T04:35:59;98480;;;8.18;88.87
4326;BME280;58429;49.826;10.880;2023-04-16T04:36:59;98481;;;8.18;88.83
4326;BME280;58429;49.826;10.880;2023-04-16T04:37:59;98483;;;8.2;88.83
4326;BME280;58429;49.826;10.880;2023-04-16T04:38:59;98488;;;8.19;88.86
4326;BME280;58429;49.826;10.880;2023-04-16T04:39:59;98487;;;8.24;88.88
4326;BME280;58429;49.826;10.880;2023-04-16T04:40:59;98480;;;8.22;88.84
4326;BME280;58429;49.826;10.880;2023-04-16T04:41:59;98487;;;8.25;88.85
4326;BME280;58429;49.826;10.880;2023-04-16T04:42:59;98489;;;8.27;88.83
4326;BME280;58429;49.826;10.880;2023-04-16T04:43:59;98485;;;8.29;88.87
4326;BME280;58429;49.826;10.880;2023-04-16T04:44:59;98491;;;8.28;88.88
4326;BME280;58429;49.826;10.880;2023-04-16T04:45:59;98486;;;8.3;88.89
4326;BME280;58429;49.826;10.880;2023-04-16T04:46:59;98490;;;8.33;88.91
4326;BME280;58429;49.826;10.880;2023-04-16T04:47:59;98492;;;8.36;88.87
4326;BME280;58429;49.826;10.880;2023-04-16T04:48:59;98494;;;8.34;88.84
4326;BME280;58429;49.826;10.880;2023-04-16T04:49:59;98490;;;8.34;88.77
4326;BME280;58429;49.826;10.880;2023-04-16T04:50:59;98492;;;8.34;88.76
4326;BME280;58429;49.826;10.880;2023-04-16T04:51:59;98494;;;8.34;88.72
4326;BME280;58429;49.826;10.880;2023-04-16T04:52:59;98491;;;8.32;88.68
4326;BME280;58429;49.826;10.880;2023-04-16T04:53:59;98496;;;8.34;88.7
4326;BME280;58429;49.826;10.880;2023-04-16T04:54:59;98496;;;8.32;88.68
4326;BME280;58429;49.826;10.880;2023-04-16T04:55:59;98494;;;8.34;88.69
4326;BME280;58429;49.826;10.880;2023-04-16T04:56:59;98498;;;8.32;88.68
4326;BME280;58429;49.826;10.880;2023-04-16T04:57:59;98500;;;8.29;88.69
4326;BME280;58429;49.826;10.880;2023-04-16T04:58:59;98499;;;8.29;88.67
4326;BME280;58429;49.826;10.880;2023-04-16T04:59:59;98497;;;8.3;88.65
4326;BME280;58429;49.826;10.880;2023-04-16T05:00:59;98505;;;8.3;88.66
4326;BME280;58429;49.826;10.880;2023-04-16T05:01:59;98502;;;8.31;88.65
4326;BME280;58429;49.826;10.880;2023-04-16T05:03:00;98503;;;8.29;88.65
4326;BME280;58429;49.826;10.880;2023-04-16T05:03:59;98506;;;8.28;88.63
4326;BME280;58429;49.826;10.880;2023-04-16T05:04:59;98507;;;8.29;88.65
4326;BME280;58429;49.826;10.880;2023-04-16T05:05:59;98504;;;8.3;88.65
4326;BME280;58429;49.826;10.880;2023-04-16T05:06:59;98502;;;8.29;88.67
4326;BME280;58429;49.826;10.880;2023-04-16T05:07:59;98505;;;8.3;88.66
4326;BME280;58429;49.826;10.880;2023-04-16T05:08:59;98510;;;8.3;88.67
4326;BME280;58429;49.826;10.880;2023-04-16T05:09:59;98515;;;8.29;88.66
4326;BME280;58429;49.826;10.880;2023-04-16T05:10:59;98518;;;8.3;88.67
4326;BME280;58429;49.826;10.880;2023-04-16T05:11:59;98516;;;8.3;88.68
4326;BME280;58429;49.826;10.880;2023-04-16T05:12:59;98517;;;8.29;88.7
4326;BME280;58429;49.826;10.880;2023-04-16T05:13:59;98517;;;8.3;88.72
4326;BME280;58429;49.826;10.880;2023-04-16T05:14:59;98512;;;8.3;88.71
4326;BME280;58429;49.826;10.880;2023-04-16T05:15:59;98523;;;8.29;88.72
4326;BME280;58429;49.826;10.880;2023-04-16T05:16:59;98517;;;8.3;88.73
4326;BME280;58429;49.826;10.880;2023-04-16T05:17:59;98515;;;8.3;88.73
4326;BME280;58429;49.826;10.880;2023-04-16T05:18:59;98516;;;8.32;88.73
4326;BME280;58429;49.826;10.880;2023-04-16T05:19:59;98517;;;8.32;88.74
4326;BME280;58429;49.826;10.880;2023-04-16T05:20:59;98518;;;8.32;88.74
4326;BME280;58429;49.826;10.880;2023-04-16T05:21:59;98516;;;8.32;88.73
4326;BME280;58429;49.826;10.880;2023-04-16T05:22:59;98517;;;8.32;88.72
4326;BME280;58429;49.826;10.880;2023-04-16T05:23:59;98519;;;8.32;88.72
4326;BME280;58429;49.826;10.880;2023-04-16T05:24:59;98521;;;8.31;88.73
4326;BME280;58429;49.826;10.880;2023-04-16T05:25:59;98522;;;8.3;88.66
4326;BME280;58429;49.826;10.880;2023-04-16T05:26:59;98526;;;8.28;88.68
4326;BME280;58429;49.826;10.880;2023-04-16T05:27:59;98516;;;8.29;88.69
4326;BME280;58429;49.826;10.880;2023-04-16T05:28:59;98528;;;8.28;88.67
4326;BME280;58429;49.826;10.880;2023-04-16T05:29:59;98530;;;8.3;88.69
4326;BME280;58429;49.826;10.880;2023-04-16T05:30:59;98528;;;8.31;88.71
4326;BME280;58429;49.826;10.880;2023-04-16T05:31:59;98525;;;8.31;88.71
4326;BME280;58429;49.826;10.880;2023-04-16T05:32:59;98534;;;8.32;88.72
4326;BME280;58429;49.826;10.880;2023-04-16T05:33:59;98530;;;8.29;88.7
4326;BME280;58429;49.826;10.880;2023-04-16T05:34:59;98532;;;8.31;88.72
4326;BME280;58429;49.826;10.880;2023-04-16T05:35:59;98534;;;8.3;88.7
4326;BME280;58429;49.826;10.880;2023-04-16T05:36:59;98537;;;8.3;88.72